sensor_id;sensor_type;location;lat;lon;timestamp;P1;durP1;ratioP1;P2;durP2;ratioP2
5939;SDS011;2995;-31.998;115.906;2022-08-19T00:00:16;4.87;;;1.90;;
5939;SDS011;2995;-31.998;115.906;2022-08-19T00:02:48;5.13;;;2.03;;
5939;SDS011;2995;-31.998;115.906;2022-08-19T00:05:20;3.53;;;1.50;;
5939;SDS011;2995;-31.998;115.906;2022-08-19T00:07:54;3.93;;;2.20;;
5939;SDS011;2995;-31.998;115.906;2022-08-19T00:10:25;4.70;;;2.10;;
5939;SDS011;2995;-31.998;115.906;2022-08-19T00:12:56;7.57;;;1.83;;
5939;SDS011;2995;-31.998;115.906;2022-08-19T00:15:28;7.40;;;1.93;;
5939;SDS011;2995;-31.998;115.906;2022-08-19T00:17:59;3.20;;;1.70;;
5939;SDS011;2995;-31.998;115.906;2022-08-19T00:20:30;5.07;;;2.17;;
5939;SDS011;2995;-31.998;115.906;2022-08-19T00:23:03;5.90;;;1.87;;
5939;SDS011;2995;-31.998;115.906;2022-08-19T00:25:35;5.83;;;1.93;;
5939;SDS011;2995;-31.998;115.906;2022-08-19T00:28:07;2.97;;;1.77;;
5939;SDS011;2995;-31.998;115.906;2022-08-19T00:30:38;9.03;;;2.93;;
5939;SDS011;2995;-31.998;115.906;2022-08-19T00:33:09;3.93;;;1.73;;
5939;SDS011;2995;-31.998;115.906;2022-08-19T00:35:42;3.30;;;1.80;;
5939;SDS011;2995;-31.998;115.906;2022-08-19T00:38:16;3.10;;;1.70;;
5939;SDS011;2995;-31.998;115.906;2022-08-19T00:40:48;3.20;;;1.67;;
5939;SDS011;2995;-31.998;115.906;2022-08-19T00:43:21;4.17;;;2.10;;
5939;SDS011;2995;-31.998;115.906;2022-08-19T00:45:54;5.90;;;1.73;;
5939;SDS011;2995;-31.998;115.906;2022-08-19T00:48:25;3.80;;;1.50;;
5939;SDS011;2995;-31.998;115.906;2022-08-19T00:50:56;7.93;;;2.53;;
5939;SDS011;2995;-31.998;115.906;2022-08-19T00:53:30;3.67;;;1.70;;
5939;SDS011;2995;-31.998;115.906;2022-08-19T00:56:02;2.07;;;1.20;;
5939;SDS011;2995;-31.998;115.906;2022-08-19T00:58:35;5.60;;;1.80;;
5939;SDS011;2995;-31.998;115.906;2022-08-19T01:01:07;3.03;;;1.53;;
5939;SDS011;2995;-31.998;115.906;2022-08-19T01:03:38;4.33;;;1.73;;
5939;SDS011;2995;-31.998;115.906;2022-08-19T01:06:09;5.23;;;2.30;;
5939;SDS011;2995;-31.998;115.906;2022-08-19T01:08:43;3.83;;;1.57;;
5939;SDS011;2995;-31.998;115.906;2022-08-19T01:11:14;3.23;;;1.83;;
5939;SDS011;2995;-31.998;115.906;2022-08-19T01:13:45;8.53;;;1.90;;
5939;SDS011;2995;-31.998;115.906;2022-08-19T01:16:18;4.27;;;1.77;;
5939;SDS011;2995;-31.998;115.906;2022-08-19T01:18:51;2.50;;;1.40;;
5939;SDS011;2995;-31.998;115.906;2022-08-19T01:21:24;3.87;;;1.60;;
5939;SDS011;2995;-31.998;115.906;2022-08-19T01:24:01;3.63;;;1.77;;
5939;SDS011;2995;-31.998;115.906;2022-08-19T01:26:37;4.60;;;2.00;;
5939;SDS011;2995;-31.998;115.906;2022-08-19T01:29:10;3.87;;;1.63;;
5939;SDS011;2995;-31.998;115.906;2022-08-19T01:31:41;3.73;;;1.97;;
5939;SDS011;2995;-31.998;115.906;2022-08-19T01:34:12;7.07;;;1.90;;
5939;SDS011;2995;-31.998;115.906;2022-08-19T01:36:44;4.03;;;1.57;;
5939;SDS011;2995;-31.998;115.906;2022-08-19T01:39:19;2.20;;;1.57;;
5939;SDS011;2995;-31.998;115.906;2022-08-19T01:41:51;4.73;;;1.40;;
5939;SDS011;2995;-31.998;115.906;2022-08-19T01:44:23;3.03;;;1.93;;
5939;SDS011;2995;-31.998;115.906;2022-08-19T01:46:54;8.03;;;1.60;;
5939;SDS011;2995;-31.998;115.906;2022-08-19T01:49:25;3.10;;;1.70;;
5939;SDS011;2995;-31.998;115.906;2022-08-19T01:51:56;5.83;;;1.57;;
5939;SDS011;2995;-31.998;115.906;2022-08-19T01:54:32;3.27;;;1.50;;
5939;SDS011;2995;-31.998;115.906;2022-08-19T01:57:04;3.70;;;1.50;;
5939;SDS011;2995;-31.998;115.906;2022-08-19T01:59:37;5.80;;;2.17;;
5939;SDS011;2995;-31.998;115.906;2022-08-19T02:02:10;1.73;;;1.40;;
5939;SDS011;2995;-31.998;115.906;2022-08-19T02:04:41;3.30;;;1.37;;
5939;SDS011;2995;-31.998;115.906;2022-08-19T02:07:13;4.03;;;1.50;;
5939;SDS011;2995;-31.998;115.906;2022-08-19T02:09:46;3.77;;;1.53;;
5939;SDS011;2995;-31.998;115.906;2022-08-19T02:12:18;4.30;;;1.27;;
5939;SDS011;2995;-31.998;115.906;2022-08-19T02:14:49;4.13;;;1.30;;
5939;SDS011;2995;-31.998;115.906;2022-08-19T02:17:21;1.63;;;1.07;;
5939;SDS011;2995;-31.998;115.906;2022-08-19T02:19:52;3.20;;;1.20;;
5939;SDS011;2995;-31.998;115.906;2022-08-19T02:22:23;5.70;;;1.50;;
5939;SDS011;2995;-31.998;115.906;2022-08-19T02:24:57;1.80;;;1.10;;
5939;SDS011;2995;-31.998;115.906;2022-08-19T02:27:28;2.80;;;1.20;;
5939;SDS011;2995;-31.998;115.906;2022-08-19T02:29:59;3.77;;;1.20;;
5939;SDS011;2995;-31.998;115.906;2022-08-19T02:32:31;3.07;;;1.30;;
5939;SDS011;2995;-31.998;115.906;2022-08-19T02:35:02;2.43;;;1.10;;
5939;SDS011;2995;-31.998;115.906;2022-08-19T02:37:34;6.27;;;1.20;;
5939;SDS011;2995;-31.998;115.906;2022-08-19T02:40:23;4.13;;;1.10;;
5939;SDS011;2995;-31.998;115.906;2022-08-19T02:42:54;2.30;;;0.97;;
5939;SDS011;2995;-31.998;115.906;2022-08-19T02:45:26;2.80;;;0.93;;
5939;SDS011;2995;-31.998;115.906;2022-08-19T02:48:00;1.97;;;1.10;;
5939;SDS011;2995;-31.998;115.906;2022-08-19T02:50:32;3.30;;;1.83;;
5939;SDS011;2995;-31.998;115.906;2022-08-19T02:53:06;3.30;;;1.00;;
5939;SDS011;2995;-31.998;115.906;2022-08-19T02:55:44;1.40;;;1.20;;
5939;SDS011;2995;-31.998;115.906;2022-08-19T02:58:16;2.93;;;0.93;;
5939;SDS011;2995;-31.998;115.906;2022-08-19T03:00:50;1.93;;;0.87;;
5939;SDS011;2995;-31.998;115.906;2022-08-19T03:03:23;1.83;;;0.90;;
5939;SDS011;2995;-31.998;115.906;2022-08-19T03:08:41;0.90;;;0.70;;
5939;SDS011;2995;-31.998;115.906;2022-08-19T03:11:16;3.47;;;1.33;;
5939;SDS011;2995;-31.998;115.906;2022-08-19T03:13:48;3.80;;;1.03;;
5939;SDS011;2995;-31.998;115.906;2022-08-19T03:16:21;1.87;;;0.90;;
5939;SDS011;2995;-31.998;115.906;2022-08-19T03:18:55;1.03;;;0.70;;
5939;SDS011;2995;-31.998;115.906;2022-08-19T03:21:28;2.10;;;1.00;;
5939;SDS011;2995;-31.998;115.906;2022-08-19T03:24:02;2.50;;;0.60;;
5939;SDS011;2995;-31.998;115.906;2022-08-19T03:26:40;1.53;;;0.70;;
5939;SDS011;2995;-31.998;115.906;2022-08-19T03:29:13;1.13;;;0.70;;
5939;SDS011;2995;-31.998;115.906;2022-08-19T03:31:45;1.60;;;0.80;;
5939;SDS011;2995;-31.998;115.906;2022-08-19T03:34:18;1.17;;;0.80;;
5939;SDS011;2995;-31.998;115.906;2022-08-19T03:36:52;1.33;;;0.93;;
5939;SDS011;2995;-31.998;115.906;2022-08-19T03:39:24;1.97;;;0.90;;
5939;SDS011;2995;-31.998;115.906;2022-08-19T03:41:59;1.13;;;0.70;;
5939;SDS011;2995;-31.998;115.906;2022-08-19T03:44:31;1.97;;;0.80;;
5939;SDS011;2995;-31.998;115.906;2022-08-19T03:47:04;0.80;;;0.60;;
5939;SDS011;2995;-31.998;115.906;2022-08-19T03:49:35;2.57;;;0.80;;
5939;SDS011;2995;-31.998;115.906;2022-08-19T03:52:06;4.10;;;0.90;;
5939;SDS011;2995;-31.998;115.906;2022-08-19T03:54:38;1.23;;;0.70;;
5939;SDS011;2995;-31.998;115.906;2022-08-19T03:57:11;1.60;;;0.70;;
5939;SDS011;2995;-31.998;115.906;2022-08-19T03:59:42;1.87;;;0.87;;
5939;SDS011;2995;-31.998;115.906;2022-08-19T04:02:13;1.90;;;0.70;;
5939;SDS011;2995;-31.998;115.906;2022-08-19T04:04:45;2.90;;;0.80;;
5939;SDS011;2995;-31.998;115.906;2022-08-19T04:07:16;1.10;;;0.67;;
5939;SDS011;2995;-31.998;115.906;2022-08-19T04:09:47;2.30;;;0.80;;
5939;SDS011;2995;-31.998;115.906;2022-08-19T04:12:21;0.97;;;0.87;;
5939;SDS011;2995;-31.998;115.906;2022-08-19T04:14:53;3.03;;;0.80;;
5939;SDS011;2995;-31.998;115.906;2022-08-19T04:17:24;3.37;;;0.90;;
5939;SDS011;2995;-31.998;115.906;2022-08-19T04:19:56;1.40;;;0.70;;
5939;SDS011;2995;-31.998;115.906;2022-08-19T04:22:27;0.90;;;0.70;;
5939;SDS011;2995;-31.998;115.906;2022-08-19T04:24:59;1.57;;;0.80;;
5939;SDS011;2995;-31.998;115.906;2022-08-19T04:27:32;1.60;;;0.70;;
5939;SDS011;2995;-31.998;115.906;2022-08-19T04:30:03;1.53;;;0.90;;
5939;SDS011;2995;-31.998;115.906;2022-08-19T04:32:35;0.90;;;0.60;;
5939;SDS011;2995;-31.998;115.906;2022-08-19T04:35:07;1.07;;;0.73;;
5939;SDS011;2995;-31.998;115.906;2022-08-19T04:37:38;6.90;;;1.23;;
5939;SDS011;2995;-31.998;115.906;2022-08-19T04:40:09;1.37;;;0.70;;
5939;SDS011;2995;-31.998;115.906;2022-08-19T04:42:59;1.17;;;0.73;;
5939;SDS011;2995;-31.998;115.906;2022-08-19T04:45:31;1.00;;;0.70;;
5939;SDS011;2995;-31.998;115.906;2022-08-19T04:48:02;1.00;;;0.60;;
5939;SDS011;2995;-31.998;115.906;2022-08-19T04:50:33;1.40;;;0.90;;
5939;SDS011;2995;-31.998;115.906;2022-08-19T04:53:05;0.70;;;0.57;;
5939;SDS011;2995;-31.998;115.906;2022-08-19T04:55:39;0.70;;;0.60;;
5939;SDS011;2995;-31.998;115.906;2022-08-19T04:58:13;2.70;;;0.90;;
5939;SDS011;2995;-31.998;115.906;2022-08-19T05:00:44;1.57;;;0.60;;
5939;SDS011;2995;-31.998;115.906;2022-08-19T05:03:16;0.90;;;0.70;;
5939;SDS011;2995;-31.998;115.906;2022-08-19T05:05:48;1.80;;;0.73;;
5939;SDS011;2995;-31.998;115.906;2022-08-19T05:08:20;1.20;;;0.60;;
5939;SDS011;2995;-31.998;115.906;2022-08-19T05:10:52;3.33;;;0.67;;
5939;SDS011;2995;-31.998;115.906;2022-08-19T05:13:25;1.33;;;0.80;;
5939;SDS011;2995;-31.998;115.906;2022-08-19T05:15:58;1.23;;;0.60;;
5939;SDS011;2995;-31.998;115.906;2022-08-19T05:18:29;1.50;;;0.70;;
5939;SDS011;2995;-31.998;115.906;2022-08-19T05:21:17;3.43;;;0.80;;
5939;SDS011;2995;-31.998;115.906;2022-08-19T05:24:09;1.70;;;0.60;;
5939;SDS011;2995;-31.998;115.906;2022-08-19T05:26:41;1.10;;;0.70;;
5939;SDS011;2995;-31.998;115.906;2022-08-19T05:29:17;1.83;;;0.60;;
5939;SDS011;2995;-31.998;115.906;2022-08-19T05:31:50;1.33;;;0.83;;
5939;SDS011;2995;-31.998;115.906;2022-08-19T05:34:23;2.80;;;0.70;;
5939;SDS011;2995;-31.998;115.906;2022-08-19T05:36:55;1.27;;;0.60;;
5939;SDS011;2995;-31.998;115.906;2022-08-19T05:39:28;1.47;;;0.60;;
5939;SDS011;2995;-31.998;115.906;2022-08-19T05:42:02;1.27;;;0.60;;
5939;SDS011;2995;-31.998;115.906;2022-08-19T05:44:37;1.33;;;0.70;;
5939;SDS011;2995;-31.998;115.906;2022-08-19T05:47:10;1.13;;;0.63;;
5939;SDS011;2995;-31.998;115.906;2022-08-19T05:49:43;2.60;;;0.70;;
5939;SDS011;2995;-31.998;115.906;2022-08-19T05:52:16;1.30;;;0.70;;
5939;SDS011;2995;-31.998;115.906;2022-08-19T05:54:48;1.00;;;0.60;;
5939;SDS011;2995;-31.998;115.906;2022-08-19T05:57:21;1.03;;;0.67;;
5939;SDS011;2995;-31.998;115.906;2022-08-19T05:59:54;0.70;;;0.50;;
5939;SDS011;2995;-31.998;115.906;2022-08-19T06:02:28;2.30;;;0.77;;
5939;SDS011;2995;-31.998;115.906;2022-08-19T06:04:59;2.23;;;0.87;;
5939;SDS011;2995;-31.998;115.906;2022-08-19T06:07:33;2.10;;;0.70;;
5939;SDS011;2995;-31.998;115.906;2022-08-19T06:10:04;2.40;;;0.67;;
5939;SDS011;2995;-31.998;115.906;2022-08-19T06:12:37;1.10;;;0.97;;
5939;SDS011;2995;-31.998;115.906;2022-08-19T06:15:11;2.50;;;0.70;;
5939;SDS011;2995;-31.998;115.906;2022-08-19T06:17:46;1.27;;;0.80;;
5939;SDS011;2995;-31.998;115.906;2022-08-19T06:20:17;2.40;;;0.90;;
5939;SDS011;2995;-31.998;115.906;2022-08-19T06:22:49;1.33;;;0.60;;
5939;SDS011;2995;-31.998;115.906;2022-08-19T06:25:20;2.70;;;0.90;;
5939;SDS011;2995;-31.998;115.906;2022-08-19T06:27:51;1.00;;;0.70;;
5939;SDS011;2995;-31.998;115.906;2022-08-19T06:30:26;1.73;;;0.60;;
5939;SDS011;2995;-31.998;115.906;2022-08-19T06:32:57;0.70;;;0.57;;
5939;SDS011;2995;-31.998;115.906;2022-08-19T06:35:28;1.97;;;0.70;;
5939;SDS011;2995;-31.998;115.906;2022-08-19T06:38:00;1.10;;;0.70;;
5939;SDS011;2995;-31.998;115.906;2022-08-19T06:40:31;0.90;;;0.60;;
5939;SDS011;2995;-31.998;115.906;2022-08-19T06:43:04;1.20;;;0.80;;
5939;SDS011;2995;-31.998;115.906;2022-08-19T06:45:38;4.50;;;0.77;;
5939;SDS011;2995;-31.998;115.906;2022-08-19T06:48:09;1.37;;;0.70;;
5939;SDS011;2995;-31.998;115.906;2022-08-19T06:50:41;2.83;;;0.80;;
5939;SDS011;2995;-31.998;115.906;2022-08-19T06:53:12;1.90;;;0.63;;
5939;SDS011;2995;-31.998;115.906;2022-08-19T06:55:43;1.07;;;0.60;;
5939;SDS011;2995;-31.998;115.906;2022-08-19T06:58:28;0.97;;;0.60;;
5939;SDS011;2995;-31.998;115.906;2022-08-19T07:01:02;1.60;;;0.60;;
5939;SDS011;2995;-31.998;115.906;2022-08-19T07:03:34;1.20;;;0.70;;
5939;SDS011;2995;-31.998;115.906;2022-08-19T07:06:09;2.03;;;0.70;;
5939;SDS011;2995;-31.998;115.906;2022-08-19T07:08:44;1.57;;;0.63;;
5939;SDS011;2995;-31.998;115.906;2022-08-19T07:11:17;4.90;;;0.70;;
5939;SDS011;2995;-31.998;115.906;2022-08-19T07:13:48;2.13;;;0.70;;
5939;SDS011;2995;-31.998;115.906;2022-08-19T07:16:23;2.00;;;0.80;;
5939;SDS011;2995;-31.998;115.906;2022-08-19T07:18:54;0.80;;;0.60;;
5939;SDS011;2995;-31.998;115.906;2022-08-19T07:21:27;2.03;;;0.70;;
5939;SDS011;2995;-31.998;115.906;2022-08-19T07:23:59;0.80;;;0.60;;
5939;SDS011;2995;-31.998;115.906;2022-08-19T07:26:31;0.90;;;0.80;;
5939;SDS011;2995;-31.998;115.906;2022-08-19T07:29:07;1.20;;;0.70;;
5939;SDS011;2995;-31.998;115.906;2022-08-19T07:31:41;2.43;;;0.70;;
5939;SDS011;2995;-31.998;115.906;2022-08-19T07:34:12;1.17;;;0.80;;
5939;SDS011;2995;-31.998;115.906;2022-08-19T07:36:43;1.20;;;0.80;;
5939;SDS011;2995;-31.998;115.906;2022-08-19T07:39:16;2.20;;;0.77;;
5939;SDS011;2995;-31.998;115.906;2022-08-19T07:41:52;1.30;;;0.80;;
5939;SDS011;2995;-31.998;115.906;2022-08-19T07:44:24;1.37;;;0.80;;
5939;SDS011;2995;-31.998;115.906;2022-08-19T07:46:58;0.70;;;0.60;;
5939;SDS011;2995;-31.998;115.906;2022-08-19T07:49:29;1.33;;;0.67;;
5939;SDS011;2995;-31.998;115.906;2022-08-19T07:52:03;2.00;;;0.90;;
5939;SDS011;2995;-31.998;115.906;2022-08-19T07:54:37;1.10;;;0.77;;
5939;SDS011;2995;-31.998;115.906;2022-08-19T07:57:09;1.87;;;0.60;;
5939;SDS011;2995;-31.998;115.906;2022-08-19T07:59:40;3.57;;;0.80;;
5939;SDS011;2995;-31.998;115.906;2022-08-19T08:02:13;0.80;;;0.60;;
5939;SDS011;2995;-31.998;115.906;2022-08-19T08:04:45;0.90;;;0.60;;
5939;SDS011;2995;-31.998;115.906;2022-08-19T08:07:31;1.67;;;0.70;;
5939;SDS011;2995;-31.998;115.906;2022-08-19T08:10:27;1.00;;;0.70;;
5939;SDS011;2995;-31.998;115.906;2022-08-19T08:12:58;0.80;;;0.60;;
5939;SDS011;2995;-31.998;115.906;2022-08-19T08:15:31;2.37;;;0.70;;
5939;SDS011;2995;-31.998;115.906;2022-08-19T08:18:05;2.03;;;0.80;;
5939;SDS011;2995;-31.998;115.906;2022-08-19T08:20:36;1.30;;;0.70;;
5939;SDS011;2995;-31.998;115.906;2022-08-19T08:23:08;1.00;;;0.63;;
5939;SDS011;2995;-31.998;115.906;2022-08-19T08:25:51;4.50;;;0.80;;
5939;SDS011;2995;-31.998;115.906;2022-08-19T08:28:24;1.20;;;0.63;;
5939;SDS011;2995;-31.998;115.906;2022-08-19T08:30:56;1.10;;;0.60;;
5939;SDS011;2995;-31.998;115.906;2022-08-19T08:33:30;1.13;;;0.70;;
5939;SDS011;2995;-31.998;115.906;2022-08-19T08:36:01;0.80;;;0.60;;
5939;SDS011;2995;-31.998;115.906;2022-08-19T08:38:36;0.93;;;0.60;;
5939;SDS011;2995;-31.998;115.906;2022-08-19T08:41:09;0.97;;;0.70;;
5939;SDS011;2995;-31.998;115.906;2022-08-19T08:43:48;1.20;;;0.83;;
5939;SDS011;2995;-31.998;115.906;2022-08-19T08:46:22;1.57;;;0.63;;
5939;SDS011;2995;-31.998;115.906;2022-08-19T08:49:02;1.57;;;0.80;;
5939;SDS011;2995;-31.998;115.906;2022-08-19T08:53:37;3.73;;;0.73;;
5939;SDS011;2995;-31.998;115.906;2022-08-19T08:56:10;2.33;;;0.80;;
5939;SDS011;2995;-31.998;115.906;2022-08-19T08:58:45;1.77;;;1.00;;
5939;SDS011;2995;-31.998;115.906;2022-08-19T09:01:20;0.80;;;0.73;;
5939;SDS011;2995;-31.998;115.906;2022-08-19T09:03:52;1.37;;;0.80;;
5939;SDS011;2995;-31.998;115.906;2022-08-19T09:06:25;2.33;;;0.70;;
5939;SDS011;2995;-31.998;115.906;2022-08-19T09:09:12;1.33;;;0.70;;
5939;SDS011;2995;-31.998;115.906;2022-08-19T09:11:55;2.00;;;1.10;;
5939;SDS011;2995;-31.998;115.906;2022-08-19T09:14:35;0.97;;;0.80;;
5939;SDS011;2995;-31.998;115.906;2022-08-19T09:17:13;2.23;;;0.80;;
5939;SDS011;2995;-31.998;115.906;2022-08-19T09:19:55;2.13;;;0.90;;
5939;SDS011;2995;-31.998;115.906;2022-08-19T09:22:31;3.03;;;0.90;;
5939;SDS011;2995;-31.998;115.906;2022-08-19T09:25:06;1.40;;;0.90;;
5939;SDS011;2995;-31.998;115.906;2022-08-19T09:27:38;3.20;;;0.80;;
5939;SDS011;2995;-31.998;115.906;2022-08-19T09:30:12;0.90;;;0.60;;
5939;SDS011;2995;-31.998;115.906;2022-08-19T09:32:46;1.63;;;0.87;;
5939;SDS011;2995;-31.998;115.906;2022-08-19T09:35:18;1.50;;;0.73;;
5939;SDS011;2995;-31.998;115.906;2022-08-19T09:37:51;1.10;;;0.70;;
5939;SDS011;2995;-31.998;115.906;2022-08-19T09:40:25;0.90;;;0.67;;
5939;SDS011;2995;-31.998;115.906;2022-08-19T09:42:58;2.60;;;0.70;;
5939;SDS011;2995;-31.998;115.906;2022-08-19T09:45:29;0.80;;;0.60;;
5939;SDS011;2995;-31.998;115.906;2022-08-19T09:48:01;2.20;;;0.93;;
5939;SDS011;2995;-31.998;115.906;2022-08-19T09:50:32;1.10;;;0.67;;
5939;SDS011;2995;-31.998;115.906;2022-08-19T09:53:04;3.63;;;0.80;;
5939;SDS011;2995;-31.998;115.906;2022-08-19T09:55:40;1.97;;;0.87;;
5939;SDS011;2995;-31.998;115.906;2022-08-19T09:58:12;1.53;;;0.90;;
5939;SDS011;2995;-31.998;115.906;2022-08-19T10:00:43;2.87;;;0.70;;
5939;SDS011;2995;-31.998;115.906;2022-08-19T10:03:15;1.80;;;0.80;;
5939;SDS011;2995;-31.998;115.906;2022-08-19T10:05:46;2.27;;;0.90;;
5939;SDS011;2995;-31.998;115.906;2022-08-19T10:08:18;1.33;;;0.80;;
5939;SDS011;2995;-31.998;115.906;2022-08-19T10:10:54;2.10;;;0.93;;
5939;SDS011;2995;-31.998;115.906;2022-08-19T10:13:26;2.00;;;0.80;;
5939;SDS011;2995;-31.998;115.906;2022-08-19T10:16:03;1.83;;;0.97;;
5939;SDS011;2995;-31.998;115.906;2022-08-19T10:18:36;1.10;;;0.80;;
5939;SDS011;2995;-31.998;115.906;2022-08-19T10:21:11;1.43;;;0.90;;
5939;SDS011;2995;-31.998;115.906;2022-08-19T10:23:43;0.93;;;0.80;;
5939;SDS011;2995;-31.998;115.906;2022-08-19T10:26:22;2.30;;;1.00;;
5939;SDS011;2995;-31.998;115.906;2022-08-19T10:28:55;4.80;;;0.90;;
5939;SDS011;2995;-31.998;115.906;2022-08-19T10:31:27;0.90;;;0.70;;
5939;SDS011;2995;-31.998;115.906;2022-08-19T10:34:00;2.77;;;1.00;;
5939;SDS011;2995;-31.998;115.906;2022-08-19T10:36:32;1.00;;;0.70;;
5939;SDS011;2995;-31.998;115.906;2022-08-19T10:39:05;1.40;;;0.80;;
5939;SDS011;2995;-31.998;115.906;2022-08-19T10:41:41;3.17;;;0.90;;
5939;SDS011;2995;-31.998;115.906;2022-08-19T10:44:12;0.83;;;0.63;;
5939;SDS011;2995;-31.998;115.906;2022-08-19T10:46:44;1.53;;;1.10;;
5939;SDS011;2995;-31.998;115.906;2022-08-19T10:49:15;7.50;;;1.00;;
5939;SDS011;2995;-31.998;115.906;2022-08-19T10:51:47;1.20;;;0.80;;
5939;SDS011;2995;-31.998;115.906;2022-08-19T10:54:34;1.90;;;1.10;;
5939;SDS011;2995;-31.998;115.906;2022-08-19T10:57:23;2.30;;;0.90;;
5939;SDS011;2995;-31.998;115.906;2022-08-19T10:59:55;1.80;;;1.20;;
5939;SDS011;2995;-31.998;115.906;2022-08-19T11:02:26;2.80;;;1.10;;
5939;SDS011;2995;-31.998;115.906;2022-08-19T11:04:59;1.20;;;0.90;;
5939;SDS011;2995;-31.998;115.906;2022-08-19T11:07:30;3.17;;;1.10;;
5939;SDS011;2995;-31.998;115.906;2022-08-19T11:10:02;2.50;;;1.00;;
5939;SDS011;2995;-31.998;115.906;2022-08-19T11:12:36;2.43;;;1.30;;
5939;SDS011;2995;-31.998;115.906;2022-08-19T11:15:08;1.87;;;0.90;;
5939;SDS011;2995;-31.998;115.906;2022-08-19T11:17:40;1.53;;;1.20;;
5939;SDS011;2995;-31.998;115.906;2022-08-19T11:20:11;2.67;;;1.27;;
5939;SDS011;2995;-31.998;115.906;2022-08-19T11:22:43;1.50;;;1.00;;
5939;SDS011;2995;-31.998;115.906;2022-08-19T11:25:14;3.13;;;1.10;;
5939;SDS011;2995;-31.998;115.906;2022-08-19T11:27:48;1.90;;;0.90;;
5939;SDS011;2995;-31.998;115.906;2022-08-19T11:30:19;1.33;;;1.10;;
5939;SDS011;2995;-31.998;115.906;2022-08-19T11:32:50;2.03;;;1.10;;
5939;SDS011;2995;-31.998;115.906;2022-08-19T11:35:22;1.20;;;1.10;;
5939;SDS011;2995;-31.998;115.906;2022-08-19T11:37:54;1.33;;;1.20;;
5939;SDS011;2995;-31.998;115.906;2022-08-19T11:40:27;1.80;;;1.27;;
5939;SDS011;2995;-31.998;115.906;2022-08-19T11:43:01;1.70;;;1.40;;
5939;SDS011;2995;-31.998;115.906;2022-08-19T11:45:32;2.77;;;2.47;;
5939;SDS011;2995;-31.998;115.906;2022-08-19T11:48:04;3.23;;;2.50;;
5939;SDS011;2995;-31.998;115.906;2022-08-19T11:50:35;5.40;;;3.07;;
5939;SDS011;2995;-31.998;115.906;2022-08-19T11:53:09;2.73;;;2.37;;
5939;SDS011;2995;-31.998;115.906;2022-08-19T11:55:40;4.00;;;2.00;;
5939;SDS011;2995;-31.998;115.906;2022-08-19T11:58:14;3.87;;;1.43;;
5939;SDS011;2995;-31.998;115.906;2022-08-19T12:00:46;1.60;;;1.40;;
5939;SDS011;2995;-31.998;115.906;2022-08-19T12:03:17;2.57;;;1.70;;
5939;SDS011;2995;-31.998;115.906;2022-08-19T12:05:49;2.20;;;1.80;;
5939;SDS011;2995;-31.998;115.906;2022-08-19T12:08:21;2.07;;;1.70;;
5939;SDS011;2995;-31.998;115.906;2022-08-19T12:10:52;3.33;;;1.67;;
5939;SDS011;2995;-31.998;115.906;2022-08-19T12:13:25;4.33;;;2.10;;
5939;SDS011;2995;-31.998;115.906;2022-08-19T12:15:57;2.10;;;1.90;;
5939;SDS011;2995;-31.998;115.906;2022-08-19T12:18:28;6.10;;;2.63;;
5939;SDS011;2995;-31.998;115.906;2022-08-19T12:21:00;4.77;;;2.37;;
5939;SDS011;2995;-31.998;115.906;2022-08-19T12:23:34;3.00;;;2.20;;
5939;SDS011;2995;-31.998;115.906;2022-08-19T12:26:06;3.60;;;3.30;;
5939;SDS011;2995;-31.998;115.906;2022-08-19T12:28:40;3.50;;;3.10;;
5939;SDS011;2995;-31.998;115.906;2022-08-19T12:31:12;2.47;;;2.27;;
5939;SDS011;2995;-31.998;115.906;2022-08-19T12:33:44;4.90;;;2.30;;
5939;SDS011;2995;-31.998;115.906;2022-08-19T12:36:15;3.20;;;2.90;;
5939;SDS011;2995;-31.998;115.906;2022-08-19T12:38:48;3.20;;;2.77;;
5939;SDS011;2995;-31.998;115.906;2022-08-19T12:41:20;3.60;;;3.30;;
5939;SDS011;2995;-31.998;115.906;2022-08-19T12:43:53;2.73;;;2.53;;
5939;SDS011;2995;-31.998;115.906;2022-08-19T12:46:25;3.70;;;2.90;;
5939;SDS011;2995;-31.998;115.906;2022-08-19T12:48:57;2.47;;;2.27;;
5939;SDS011;2995;-31.998;115.906;2022-08-19T12:51:29;2.60;;;1.83;;
5939;SDS011;2995;-31.998;115.906;2022-08-19T12:54:01;3.10;;;1.67;;
5939;SDS011;2995;-31.998;115.906;2022-08-19T12:56:32;2.70;;;1.73;;
5939;SDS011;2995;-31.998;115.906;2022-08-19T12:59:07;3.70;;;1.80;;
5939;SDS011;2995;-31.998;115.906;2022-08-19T13:01:38;3.50;;;1.70;;
5939;SDS011;2995;-31.998;115.906;2022-08-19T13:04:09;4.33;;;2.30;;
5939;SDS011;2995;-31.998;115.906;2022-08-19T13:06:41;3.00;;;2.67;;
5939;SDS011;2995;-31.998;115.906;2022-08-19T13:09:13;4.20;;;2.73;;
5939;SDS011;2995;-31.998;115.906;2022-08-19T13:11:44;4.20;;;2.53;;
5939;SDS011;2995;-31.998;115.906;2022-08-19T13:14:17;5.00;;;2.90;;
5939;SDS011;2995;-31.998;115.906;2022-08-19T13:16:48;5.60;;;3.47;;
5939;SDS011;2995;-31.998;115.906;2022-08-19T13:19:20;4.43;;;2.90;;
5939;SDS011;2995;-31.998;115.906;2022-08-19T13:21:51;5.47;;;2.90;;
5939;SDS011;2995;-31.998;115.906;2022-08-19T13:24:24;2.60;;;2.40;;
5939;SDS011;2995;-31.998;115.906;2022-08-19T13:26:55;4.50;;;2.63;;
5939;SDS011;2995;-31.998;115.906;2022-08-19T13:29:28;4.43;;;3.07;;
5939;SDS011;2995;-31.998;115.906;2022-08-19T13:32:15;3.03;;;2.73;;
5939;SDS011;2995;-31.998;115.906;2022-08-19T13:35:02;2.97;;;2.33;;
5939;SDS011;2995;-31.998;115.906;2022-08-19T13:37:34;3.03;;;2.70;;
5939;SDS011;2995;-31.998;115.906;2022-08-19T13:40:12;4.97;;;2.40;;
5939;SDS011;2995;-31.998;115.906;2022-08-19T13:42:45;3.27;;;2.30;;
5939;SDS011;2995;-31.998;115.906;2022-08-19T13:45:20;3.53;;;3.13;;
5939;SDS011;2995;-31.998;115.906;2022-08-19T13:47:53;4.00;;;2.50;;
5939;SDS011;2995;-31.998;115.906;2022-08-19T13:50:26;4.10;;;2.40;;
5939;SDS011;2995;-31.998;115.906;2022-08-19T13:52:59;3.47;;;2.83;;
5939;SDS011;2995;-31.998;115.906;2022-08-19T13:55:30;3.67;;;3.37;;
5939;SDS011;2995;-31.998;115.906;2022-08-19T13:58:02;3.67;;;2.67;;
5939;SDS011;2995;-31.998;115.906;2022-08-19T14:00:41;3.47;;;2.83;;
5939;SDS011;2995;-31.998;115.906;2022-08-19T14:03:14;7.33;;;3.00;;
5939;SDS011;2995;-31.998;115.906;2022-08-19T14:05:45;3.63;;;2.90;;
5939;SDS011;2995;-31.998;115.906;2022-08-19T14:08:17;3.63;;;3.33;;
5939;SDS011;2995;-31.998;115.906;2022-08-19T14:10:48;5.17;;;3.70;;
5939;SDS011;2995;-31.998;115.906;2022-08-19T14:13:20;3.30;;;2.93;;
5939;SDS011;2995;-31.998;115.906;2022-08-19T14:15:54;5.00;;;3.80;;
5939;SDS011;2995;-31.998;115.906;2022-08-19T14:18:26;4.43;;;4.03;;
5939;SDS011;2995;-31.998;115.906;2022-08-19T14:20:57;9.10;;;5.00;;
5939;SDS011;2995;-31.998;115.906;2022-08-19T14:23:29;3.60;;;3.30;;
5939;SDS011;2995;-31.998;115.906;2022-08-19T14:26:03;5.03;;;4.53;;
5939;SDS011;2995;-31.998;115.906;2022-08-19T14:28:36;5.40;;;4.40;;
5939;SDS011;2995;-31.998;115.906;2022-08-19T14:31:10;5.60;;;4.80;;
5939;SDS011;2995;-31.998;115.906;2022-08-19T14:33:45;4.57;;;4.10;;
5939;SDS011;2995;-31.998;115.906;2022-08-19T14:36:16;9.23;;;4.70;;
5939;SDS011;2995;-31.998;115.906;2022-08-19T14:38:49;8.70;;;4.33;;
5939;SDS011;2995;-31.998;115.906;2022-08-19T14:41:21;5.23;;;4.17;;
5939;SDS011;2995;-31.998;115.906;2022-08-19T14:43:53;5.73;;;4.17;;
5939;SDS011;2995;-31.998;115.906;2022-08-19T14:46:27;6.67;;;4.50;;
5939;SDS011;2995;-31.998;115.906;2022-08-19T14:48:59;8.50;;;5.10;;
5939;SDS011;2995;-31.998;115.906;2022-08-19T14:51:31;8.60;;;3.83;;
5939;SDS011;2995;-31.998;115.906;2022-08-19T14:54:02;5.23;;;3.47;;
5939;SDS011;2995;-31.998;115.906;2022-08-19T14:56:33;6.53;;;3.20;;
5939;SDS011;2995;-31.998;115.906;2022-08-19T14:59:05;12.03;;;3.30;;
5939;SDS011;2995;-31.998;115.906;2022-08-19T15:01:38;3.60;;;3.10;;
5939;SDS011;2995;-31.998;115.906;2022-08-19T15:04:09;6.80;;;5.87;;
5939;SDS011;2995;-31.998;115.906;2022-08-19T15:06:40;17.87;;;12.17;;
5939;SDS011;2995;-31.998;115.906;2022-08-19T15:09:12;34.33;;;23.37;;
5939;SDS011;2995;-31.998;115.906;2022-08-19T15:11:43;28.33;;;18.00;;